Time;durP1;ratioP1;P1;durP2;ratioP2;P2;SDS_P1;SDS_P2;PMS_P1;PMS_P2;Temp;Humidity;BMP_temperature;BMP_pressure;BME280_temperature;BME280_humidity;BME280_pressure;Samples;Min_cycle;Max_cycle;Signal;HPM_P1;HPM_P2
2024/01/19 00:01:52;;;;;;;37.40;29.00;;;;;;;4.56;100.00;98341.69;87118;270;136023;-71
2024/01/19 00:03:54;;;;;;;36.70;27.60;;;;;;;4.54;100.00;98342.81;87256;269;25273;-72
2024/01/19 00:05:56;;;;;;;37.20;28.40;;;;;;;4.52;100.00;98345.23;87155;270;135730;-72
2024/01/19 00:07:59;;;;;;;41.10;29.40;;;;;;;4.51;100.00;98347.95;87278;274;22581;-72
2024/01/19 00:10:02;;;;;;;39.70;28.70;;;;;;;4.57;100.00;98340.51;87158;270;137842;-72
2024/01/19 00:12:05;;;;;;;41.00;28.10;;;;;;;4.65;100.00;98342.92;87187;274;137113;-72
2024/01/19 00:14:07;;;;;;;38.70;27.40;;;;;;;4.74;100.00;98342.83;87429;270;22717;-72
2024/01/19 00:16:09;;;;;;;37.20;27.60;;;;;;;4.79;100.00;98338.94;87155;269;136763;-72
2024/01/19 00:18:10;;;;;;;40.10;26.20;;;;;;;4.78;100.00;98342.55;87651;278;22560;-72
2024/01/19 00:20:13;;;;;;;37.90;29.20;;;;;;;4.72;100.00;98341.52;87197;267;136486;-70
2024/01/19 00:22:14;;;;;;;39.90;29.00;;;;;;;4.63;100.00;98346.09;87294;274;22577;-73
2024/01/19 00:24:16;;;;;;;40.80;29.20;;;;;;;4.56;100.00;98353.20;87220;271;136389;-73
2024/01/19 00:26:18;;;;;;;41.80;28.40;;;;;;;4.53;100.00;98355.87;87197;270;22712;-74
2024/01/19 00:28:20;;;;;;;40.20;28.30;;;;;;;4.55;100.00;98354.31;87338;270;136926;-74
2024/01/19 00:30:22;;;;;;;37.70;25.40;;;;;;;4.63;100.00;98357.70;87304;269;24270;-71
2024/01/19 00:32:24;;;;;;;39.00;28.00;;;;;;;4.68;100.00;98355.48;87006;280;136820;-72
2024/01/19 00:34:25;;;;;;;37.40;27.80;;;;;;;4.71;100.00;98358.94;87180;269;23886;-71
2024/01/19 00:36:28;;;;;;;35.20;28.00;;;;;;;4.68;100.00;98353.85;87162;266;137260;-69
2024/01/19 00:38:30;;;;;;;41.80;30.40;;;;;;;4.65;100.00;98351.73;87392;270;22584;-72
2024/01/19 00:40:31;;;;;;;43.10;30.30;;;;;;;4.61;100.00;98355.42;87154;273;136664;-70
2024/01/19 00:42:33;;;;;;;41.80;29.30;;;;;;;4.67;100.00;98350.81;87235;269;22571;-72
2024/01/19 00:44:35;;;;;;;43.20;28.60;;;;;;;4.70;100.00;98352.02;87028;271;136425;-73
2024/01/19 00:46:37;;;;;;;39.10;28.70;;;;;;;4.73;100.00;98355.38;87208;270;23854;-71
2024/01/19 00:48:39;;;;;;;40.30;27.80;;;;;;;4.66;100.00;98355.31;87154;269;138396;-73
2024/01/19 00:50:41;;;;;;;40.20;28.50;;;;;;;4.67;100.00;98352.02;87382;273;22644;-72
2024/01/19 00:52:43;;;;;;;37.80;28.50;;;;;;;4.64;100.00;98346.75;87204;273;136020;-70
2024/01/19 00:54:45;;;;;;;41.60;30.60;;;;;;;4.60;100.00;98348.44;87375;274;24113;-71
2024/01/19 00:56:49;;;;;;;40.20;29.50;;;;;;;4.55;100.00;98352.15;87085;267;137462;-71
2024/01/19 00:58:51;;;;;;;40.20;30.70;;;;;;;4.51;100.00;98353.43;87360;271;23748;-70
2024/01/19 01:00:53;;;;;;;38.90;28.80;;;;;;;4.48;100.00;98356.09;87149;274;137368;-70
2024/01/19 01:02:57;;;;;;;45.70;30.30;;;;;;;4.53;100.00;98361.64;87359;265;23611;-72
2024/01/19 01:05:01;;;;;;;40.50;30.70;;;;;;;4.59;100.00;98363.95;87225;261;136777;-70
2024/01/19 01:07:03;;;;;;;38.30;29.50;;;;;;;4.66;100.00;98363.91;87287;269;22629;-73
2024/01/19 01:09:05;;;;;;;44.50;29.70;;;;;;;4.66;100.00;98364.48;87206;278;136382;-73
2024/01/19 01:11:08;;;;;;;41.50;29.60;;;;;;;4.59;100.00;98367.30;87287;269;22555;-71
2024/01/19 01:13:10;;;;;;;41.40;29.70;;;;;;;4.52;100.00;98367.13;87380;270;137519;-72
2024/01/19 01:15:12;;;;;;;46.50;30.50;;;;;;;4.45;100.00;98371.71;87927;269;22577;-72
2024/01/19 01:17:16;;;;;;;45.40;31.40;;;;;;;4.41;100.00;98370.40;87454;277;136013;-72
2024/01/19 01:19:18;;;;;;;43.30;31.00;;;;;;;4.37;100.00;98375.95;87351;273;22556;-71
2024/01/19 01:21:20;;;;;;;42.00;30.90;;;;;;;4.40;100.00;98381.88;87236;269;137005;-74
2024/01/19 01:23:22;;;;;;;38.00;28.10;;;;;;;4.49;100.00;98381.52;87247;270;22572;-71
2024/01/19 01:25:24;;;;;;;42.50;29.10;;;;;;;4.55;100.00;98379.38;87146;269;137112;-72
2024/01/19 01:27:26;;;;;;;42.30;30.80;;;;;;;4.57;100.00;98376.95;87291;269;23442;-71
2024/01/19 01:29:27;;;;;;;49.60;32.20;;;;;;;4.58;100.00;98376.48;87034;274;136218;-71
2024/01/19 01:31:29;;;;;;;51.40;29.80;;;;;;;4.55;100.00;98379.42;87207;270;25182;-73
2024/01/19 01:33:31;;;;;;;51.20;33.00;;;;;;;4.54;100.00;98381.30;87133;277;136391;-70
2024/01/19 01:35:35;;;;;;;48.40;32.90;;;;;;;4.56;100.00;98380.41;87347;267;22576;-70
2024/01/19 01:37:37;;;;;;;49.30;32.00;;;;;;;4.62;100.00;98383.30;87172;269;136809;-72
2024/01/19 01:39:40;;;;;;;48.70;33.20;;;;;;;4.71;100.00;98382.73;87267;269;24030;-74
2024/01/19 01:41:44;;;;;;;42.70;29.00;;;;;;;4.66;100.00;98381.90;87155;266;136726;-71
2024/01/19 01:43:45;;;;;;;45.60;30.10;;;;;;;4.61;100.00;98384.98;87466;273;22556;-70
2024/01/19 01:45:47;;;;;;;46.20;28.60;;;;;;;4.55;100.00;98384.83;87141;273;136224;-70
2024/01/19 01:47:50;;;;;;;48.80;32.90;;;;;;;4.47;100.00;98388.77;87273;269;22560;-72
2024/01/19 01:49:54;;;;;;;48.70;32.40;;;;;;;4.41;100.00;98391.90;87095;274;136825;-72
2024/01/19 01:51:57;;;;;;;46.50;30.00;;;;;;;4.41;100.00;98390.77;87253;275;25198;-72
2024/01/19 01:54:00;;;;;;;46.00;29.30;;;;;;;4.49;100.00;98389.48;87306;270;136570;-71
2024/01/19 01:56:05;;;;;;;46.90;30.60;;;;;;;4.60;100.00;98394.34;87380;274;22597;-71
2024/01/19 01:58:08;;;;;;;45.50;29.50;;;;;;;4.66;100.00;98397.33;87340;272;22547;-71
2024/01/19 02:00:13;;;;;;;48.20;31.10;;;;;;;4.69;100.00;98397.95;87299;264;136935;-75
2024/01/19 02:02:15;;;;;;;50.80;32.00;;;;;;;4.58;100.00;98403.67;87509;269;24110;-71
2024/01/19 02:04:18;;;;;;;49.10;34.40;;;;;;;4.53;100.00;98407.35;87224;269;136383;-73
2024/01/19 02:06:20;;;;;;;48.30;33.40;;;;;;;4.52;100.00;98409.95;87531;273;22564;-72
2024/01/19 02:08:23;;;;;;;54.60;32.60;;;;;;;4.51;100.00;98412.54;87313;268;136211;-70
2024/01/19 02:10:25;;;;;;;49.60;31.40;;;;;;;4.56;100.00;98416.01;87303;266;23763;-70
2024/01/19 02:12:27;;;;;;;43.80;30.50;;;;;;;4.63;100.00;98421.02;87193;274;136890;-72
2024/01/19 02:14:28;;;;;;;49.10;31.40;;;;;;;4.65;100.00;98425.63;87231;271;24006;-71
2024/01/19 02:16:30;;;;;;;43.30;29.30;;;;;;;4.61;100.00;98426.41;87209;266;136185;-75
2024/01/19 02:18:34;;;;;;;43.70;29.20;;;;;;;4.54;100.00;98428.65;87234;262;24401;-76
2024/01/19 02:20:36;;;;;;;47.30;31.50;;;;;;;4.49;100.00;98433.15;87287;266;136701;-71
2024/01/19 02:22:39;;;;;;;45.60;30.60;;;;;;;4.45;100.00;98435.03;87235;274;24030;-71
2024/01/19 02:24:41;;;;;;;43.60;29.30;;;;;;;4.43;100.00;98436.73;87209;277;136090;-69
2024/01/19 02:26:44;;;;;;;39.20;27.20;;;;;;;4.49;100.00;98436.48;87232;269;24142;-68
2024/01/19 02:28:45;;;;;;;39.90;27.20;;;;;;;4.60;100.00;98439.20;87217;269;137082;-72
2024/01/19 02:30:47;;;;;;;41.50;28.90;;;;;;;4.68;100.00;98443.45;87303;270;22563;-72
2024/01/19 02:32:49;;;;;;;38.00;26.90;;;;;;;4.75;100.00;98440.73;87248;270;137873;-72
2024/01/19 02:34:51;;;;;;;42.20;27.90;;;;;;;4.74;100.00;98444.27;87388;271;22534;-72
2024/01/19 02:36:54;;;;;;;43.80;29.30;;;;;;;4.57;100.00;98447.08;87233;274;137678;-70
2024/01/19 02:38:56;;;;;;;42.50;28.00;;;;;;;4.53;100.00;98452.93;87365;274;22558;-71
2024/01/19 02:40:59;;;;;;;43.00;28.30;;;;;;;4.57;100.00;98456.40;87300;274;138019;-71
2024/01/19 02:43:01;;;;;;;40.60;28.90;;;;;;;4.66;100.00;98453.02;87312;274;22584;-71
2024/01/19 02:45:03;;;;;;;40.30;27.70;;;;;;;4.72;100.00;98458.88;87150;265;136823;-69
2024/01/19 02:47:05;;;;;;;40.90;27.10;;;;;;;4.80;100.00;98459.44;87321;269;22648;-71
2024/01/19 02:49:08;;;;;;;41.50;26.90;;;;;;;4.78;100.00;98461.33;87027;268;137106;-71
2024/01/19 02:51:10;;;;;;;37.60;28.00;;;;;;;4.73;100.00;98462.98;87312;269;22645;-69
2024/01/19 02:53:12;;;;;;;37.70;27.00;;;;;;;4.68;100.00;98467.70;87183;273;136398;-71
2024/01/19 02:55:15;;;;;;;37.90;24.20;;;;;;;4.72;100.00;98474.21;87302;274;25111;-71
2024/01/19 02:57:16;;;;;;;33.00;22.40;;;;;;;4.93;100.00;98474.30;87186;273;138609;-73
2024/01/19 02:59:18;;;;;;;32.50;25.40;;;;;;;5.01;100.00;98477.33;87275;270;22561;-70
2024/01/19 03:01:20;;;;;;;34.10;25.40;;;;;;;4.94;100.00;98486.33;87094;270;136247;-70
2024/01/19 03:03:22;;;;;;;38.80;27.50;;;;;;;4.85;100.00;98485.28;87122;265;25096;-71
2024/01/19 03:05:23;;;;;;;34.00;26.30;;;;;;;4.75;100.00;98486.30;87175;273;136466;-70
2024/01/19 03:07:25;;;;;;;34.60;25.30;;;;;;;4.73;100.00;98491.76;87233;266;22564;-70
2024/01/19 03:09:31;;;;;;;32.40;23.50;;;;;;;4.68;100.00;98496.23;87143;273;136131;-71
2024/01/19 03:11:32;;;;;;;33.70;25.00;;;;;;;4.66;100.00;98496.33;87279;264;22545;-71
2024/01/19 03:13:34;;;;;;;35.20;25.30;;;;;;;4.71;100.00;98503.29;87222;264;137206;-69
2024/01/19 03:15:36;;;;;;;35.90;25.20;;;;;;;4.71;100.00;98507.59;87300;270;22555;-69
2024/01/19 03:17:38;;;;;;;32.70;24.20;;;;;;;4.75;100.00;98510.86;87151;269;137549;-71
2024/01/19 03:19:40;;;;;;;33.50;23.50;;;;;;;4.68;100.00;98512.48;87250;273;22724;-70
2024/01/19 03:21:42;;;;;;;34.90;25.90;;;;;;;4.36;100.00;98513.73;87193;273;137537;-73
2024/01/19 03:23:44;;;;;;;38.80;26.00;;;;;;;4.41;100.00;98516.42;87269;270;22578;-73
2024/01/19 03:25:46;;;;;;;37.60;26.00;;;;;;;4.50;100.00;98517.78;87197;269;136375;-72
2024/01/19 03:27:50;;;;;;;36.70;24.10;;;;;;;4.52;100.00;98519.73;87350;270;25129;-72
2024/01/19 03:29:52;;;;;;;30.00;22.70;;;;;;;4.71;100.00;98523.30;87079;269;137176;-71
2024/01/19 03:31:54;;;;;;;32.20;22.70;;;;;;;4.71;100.00;98522.44;87680;270;23413;-71
2024/01/19 03:33:56;;;;;;;28.30;20.90;;;;;;;4.67;100.00;98529.52;87664;270;136744;-70
2024/01/19 03:35:58;;;;;;;29.30;20.20;;;;;;;4.68;100.00;98532.83;87364;269;22753;-72
2024/01/19 03:38:02;;;;;;;24.70;18.00;;;;;;;4.64;100.00;98537.91;87520;270;22586;-68
2024/01/19 03:40:07;;;;;;;23.90;17.60;;;;;;;4.57;100.00;98541.52;87238;265;136609;-72
2024/01/19 03:42:09;;;;;;;19.80;15.30;;;;;;;4.35;100.00;98544.35;87432;273;23736;-71
2024/01/19 03:44:13;;;;;;;17.90;14.10;;;;;;;4.29;100.00;98548.56;87200;270;137877;-70
2024/01/19 03:46:14;;;;;;;21.60;15.40;;;;;;;4.28;100.00;98554.12;87279;270;25280;-70
2024/01/19 03:48:18;;;;;;;17.20;14.10;;;;;;;4.26;100.00;98557.42;87163;273;137273;-70
2024/01/19 03:50:22;;;;;;;18.70;14.70;;;;;;;4.28;100.00;98563.52;87389;277;23744;-73
2024/01/19 03:52:24;;;;;;;16.30;14.10;;;;;;;4.30;100.00;98565.70;87413;269;138375;-72
2024/01/19 03:54:26;;;;;;;18.00;12.90;;;;;;;4.20;100.00;98568.53;87340;267;22577;-73
2024/01/19 03:56:28;;;;;;;16.90;13.00;;;;;;;4.24;100.00;98571.77;87232;270;136525;-69
2024/01/19 03:58:30;;;;;;;16.20;12.30;;;;;;;4.16;100.00;98575.16;87362;270;24062;-69
2024/01/19 04:00:32;;;;;;;16.00;13.00;;;;;;;4.17;100.00;98579.06;87293;270;138567;-71
2024/01/19 04:02:34;;;;;;;14.60;11.60;;;;;;;4.14;100.00;98581.95;87278;269;25454;-70
2024/01/19 04:04:36;;;;;;;14.30;12.10;;;;;;;4.04;100.00;98587.59;87269;270;137259;-72
2024/01/19 04:06:38;;;;;;;12.60;11.30;;;;;;;3.97;100.00;98585.01;87292;263;22555;-69
2024/01/19 04:08:41;;;;;;;17.00;13.30;;;;;;;3.88;100.00;98592.80;87240;270;136693;-70
2024/01/19 04:10:43;;;;;;;13.60;11.10;;;;;;;3.81;100.00;98595.64;87269;270;22592;-71
2024/01/19 04:12:44;;;;;;;15.90;12.10;;;;;;;3.79;100.00;98597.45;87158;277;137048;-70
2024/01/19 04:14:47;;;;;;;13.50;11.10;;;;;;;3.81;100.00;98602.48;87254;270;22705;-71
2024/01/19 04:16:49;;;;;;;12.70;11.30;;;;;;;3.80;100.00;98606.17;87224;269;137265;-69
2024/01/19 04:18:50;;;;;;;15.20;11.40;;;;;;;3.79;100.00;98608.52;87326;269;25076;-75
2024/01/19 04:20:53;;;;;;;12.10;10.10;;;;;;;3.87;100.00;98610.73;87150;269;137930;-72
2024/01/19 04:22:55;;;;;;;11.70;9.60;;;;;;;3.86;100.00;98612.36;87323;262;22580;-70
2024/01/19 04:24:56;;;;;;;10.90;9.60;;;;;;;3.83;100.00;98618.86;87208;269;136903;-71
2024/01/19 04:27:00;;;;;;;10.20;9.00;;;;;;;3.87;100.00;98627.34;87335;274;22798;-70
2024/01/19 04:29:02;;;;;;;10.40;9.30;;;;;;;3.85;100.00;98628.98;87253;265;137134;-71
2024/01/19 04:31:05;;;;;;;9.50;8.30;;;;;;;3.83;100.00;98635.80;87321;278;22639;-72
2024/01/19 04:33:07;;;;;;;10.70;9.50;;;;;;;3.81;100.00;98639.03;87258;274;136779;-73
2024/01/19 04:35:10;;;;;;;10.60;9.50;;;;;;;3.76;100.00;98646.80;87399;262;22813;-73
2024/01/19 04:37:12;;;;;;;7.50;6.90;;;;;;;3.72;100.00;98661.41;87213;266;137082;-70
2024/01/19 04:39:13;;;;;;;10.20;9.10;;;;;;;3.67;100.00;98665.50;87359;274;25211;-72
2024/01/19 04:41:15;;;;;;;8.50;6.80;;;;;;;3.66;100.00;98674.90;87188;270;138110;-71
2024/01/19 04:43:17;;;;;;;10.00;8.80;;;;;;;3.61;100.00;98681.41;87426;263;22830;-69
2024/01/19 04:45:19;;;;;;;11.70;9.10;;;;;;;3.64;100.00;98684.48;87315;274;138398;-69
2024/01/19 04:47:21;;;;;;;9.10;8.20;;;;;;;3.62;100.00;98688.51;87355;269;22561;-70
2024/01/19 04:49:23;;;;;;;9.10;7.60;;;;;;;3.57;100.00;98693.43;87251;266;136199;-72
2024/01/19 04:51:25;;;;;;;8.70;7.90;;;;;;;3.53;100.00;98700.48;87296;273;22559;-71
2024/01/19 04:53:27;;;;;;;8.00;7.20;;;;;;;3.51;100.00;98704.09;87187;270;136885;-71
2024/01/19 04:55:29;;;;;;;7.00;6.20;;;;;;;3.47;100.00;98708.55;87308;279;22560;-71
2024/01/19 04:57:30;;;;;;;7.30;6.40;;;;;;;3.43;100.00;98710.36;87239;266;136913;-70
2024/01/19 04:59:34;;;;;;;8.70;7.70;;;;;;;3.38;100.00;98710.73;87277;265;22487;-69
2024/01/19 05:01:36;;;;;;;8.10;6.60;;;;;;;3.35;100.00;98711.66;86992;270;138109;-72
2024/01/19 05:03:41;;;;;;;7.50;6.70;;;;;;;3.31;100.00;98718.05;87264;274;22555;-70
2024/01/19 05:05:43;;;;;;;10.30;9.00;;;;;;;3.26;100.00;98722.98;87261;276;137383;-70
2024/01/19 05:07:44;;;;;;;8.80;7.90;;;;;;;3.24;100.00;98734.45;87270;266;22565;-71
2024/01/19 05:09:46;;;;;;;7.70;7.00;;;;;;;3.21;100.00;98740.80;87143;277;136900;-72
2024/01/19 05:11:48;;;;;;;7.70;6.90;;;;;;;3.20;100.00;98745.36;87284;270;22586;-71
2024/01/19 05:13:50;;;;;;;9.00;8.20;;;;;;;3.19;100.00;98742.42;87246;277;136970;-71
2024/01/19 05:15:52;;;;;;;7.30;6.60;;;;;;;3.17;100.00;98752.39;87230;278;22687;-72
2024/01/19 05:17:54;;;;;;;8.10;6.10;;;;;;;3.13;100.00;98760.29;87023;269;136881;-71
2024/01/19 05:19:56;;;;;;;7.80;7.00;;;;;;;3.07;100.00;98763.55;87231;269;23105;-72
2024/01/19 05:21:57;;;;;;;6.90;5.70;;;;;;;3.06;100.00;98771.14;87333;273;137670;-69
2024/01/19 05:23:59;;;;;;;6.40;5.80;;;;;;;3.05;100.00;98779.00;87204;273;24084;-70
2024/01/19 05:26:04;;;;;;;7.20;6.50;;;;;;;3.00;100.00;98782.23;87042;269;137835;-71
2024/01/19 05:28:06;;;;;;;6.00;5.40;;;;;;;2.76;100.00;98788.30;87251;269;142311;-71
2024/01/19 05:30:09;;;;;;;7.70;6.90;;;;;;;2.72;100.00;98793.48;87117;277;24329;-73
2024/01/19 05:32:11;;;;;;;6.30;5.50;;;;;;;2.84;100.00;98796.91;87259;266;138407;-71
2024/01/19 05:34:12;;;;;;;6.80;6.10;;;;;;;2.84;100.00;98803.67;87259;274;24119;-72
2024/01/19 05:36:15;;;;;;;6.80;6.10;;;;;;;2.82;100.00;98810.11;87172;269;137254;-70
2024/01/19 05:38:17;;;;;;;7.80;7.00;;;;;;;2.83;100.00;98815.72;87365;274;22640;-71
2024/01/19 05:40:18;;;;;;;6.10;5.60;;;;;;;2.85;100.00;98821.48;87208;265;136915;-69
2024/01/19 05:42:20;;;;;;;7.20;5.90;;;;;;;2.82;100.00;98831.85;87150;275;22576;-71
2024/01/19 05:44:22;;;;;;;6.60;6.00;;;;;;;2.65;100.00;98839.84;87143;273;137152;-71
2024/01/19 05:46:24;;;;;;;7.70;6.60;;;;;;;2.61;100.00;98854.05;87305;273;27459;-73
2024/01/19 05:48:26;;;;;;;7.00;6.30;;;;;;;2.54;100.00;98853.83;87263;270;136707;-70
2024/01/19 05:50:28;;;;;;;5.90;5.30;;;;;;;2.45;100.00;98862.52;87924;269;24007;-71
2024/01/19 05:52:30;;;;;;;6.70;6.10;;;;;;;2.47;100.00;98866.41;87508;264;137193;-71
2024/01/19 05:54:33;;;;;;;6.60;6.10;;;;;;;2.52;100.00;98874.11;87280;266;22632;-72
2024/01/19 05:56:36;;;;;;;7.10;6.50;;;;;;;2.58;100.00;98880.45;87210;274;137876;-72
2024/01/19 05:58:38;;;;;;;6.80;6.20;;;;;;;2.52;100.00;98882.34;87186;277;22524;-70
2024/01/19 06:00:40;;;;;;;7.20;6.30;;;;;;;2.51;100.00;98883.01;87099;270;136918;-69
2024/01/19 06:02:42;;;;;;;7.80;6.40;;;;;;;2.49;100.00;98887.29;87204;265;22555;-70
2024/01/19 06:04:44;;;;;;;6.30;5.80;;;;;;;2.30;100.00;98893.24;87156;266;136646;-70
2024/01/19 06:06:46;;;;;;;7.50;6.70;;;;;;;2.30;100.00;98901.14;87249;269;22568;-69
2024/01/19 06:08:48;;;;;;;9.40;8.00;;;;;;;2.31;100.00;98904.72;87287;265;136824;-71
2024/01/19 06:10:51;;;;;;;9.60;8.60;;;;;;;2.32;100.00;98908.83;87161;269;22623;-72
2024/01/19 06:12:52;;;;;;;11.00;7.80;;;;;;;2.32;100.00;98912.14;87129;270;137984;-74
2024/01/19 06:14:54;;;;;;;9.40;8.00;;;;;;;2.34;100.00;98916.51;87247;264;24028;-73
2024/01/19 06:16:56;;;;;;;7.80;7.00;;;;;;;2.36;100.00;98916.48;87234;270;136341;-75
2024/01/19 06:18:58;;;;;;;8.60;7.70;;;;;;;2.37;100.00;98923.98;87214;270;22562;-73
2024/01/19 06:21:00;;;;;;;8.30;6.50;;;;;;;2.42;100.00;98929.46;87200;273;136943;-73
2024/01/19 06:23:03;;;;;;;10.30;8.40;;;;;;;2.44;100.00;98934.81;87403;268;22585;-71
2024/01/19 06:25:05;;;;;;;8.50;7.40;;;;;;;2.37;100.00;98935.83;87359;273;137147;-74
2024/01/19 06:27:07;;;;;;;8.30;7.50;;;;;;;2.41;100.00;98944.45;87319;270;22625;-72
2024/01/19 06:29:09;;;;;;;9.50;8.40;;;;;;;2.37;100.00;98946.15;87117;266;138143;-74
2024/01/19 06:31:11;;;;;;;12.80;10.00;;;;;;;2.30;100.00;98943.73;87193;277;22526;-75
2024/01/19 06:33:12;;;;;;;9.60;8.70;;;;;;;2.23;100.00;98944.21;87234;278;137125;-73
2024/01/19 06:35:15;;;;;;;10.70;9.60;;;;;;;2.36;100.00;98950.05;87312;266;22652;-75
2024/01/19 06:37:16;;;;;;;10.10;8.90;;;;;;;2.33;100.00;98951.81;87473;274;137757;-73
2024/01/19 06:39:18;;;;;;;10.00;8.40;;;;;;;2.33;100.00;98960.02;87579;270;22572;-74
2024/01/19 06:41:21;;;;;;;9.40;8.30;;;;;;;2.25;100.00;98961.52;87477;266;137260;-69
2024/01/19 06:43:23;;;;;;;12.00;9.30;;;;;;;2.21;100.00;98960.62;87548;278;24121;-71
2024/01/19 06:45:25;;;;;;;12.10;9.40;;;;;;;2.28;100.00;98959.77;87456;270;137886;-69
2024/01/19 06:47:27;;;;;;;9.60;8.10;;;;;;;2.34;100.00;98962.27;87578;266;24967;-70
2024/01/19 06:49:29;;;;;;;11.00;9.50;;;;;;;2.30;100.00;98973.05;87535;265;136871;-70
2024/01/19 06:51:32;;;;;;;10.80;8.90;;;;;;;2.26;100.00;98976.12;87574;265;25212;-71
2024/01/19 06:53:34;;;;;;;13.30;9.30;;;;;;;2.24;100.00;98985.39;87065;270;139235;-68
2024/01/19 06:55:36;;;;;;;11.20;8.70;;;;;;;2.31;100.00;98992.05;87157;270;24030;-70
2024/01/19 06:57:38;;;;;;;10.40;9.40;;;;;;;2.22;100.00;98991.37;87065;270;136901;-69
2024/01/19 06:59:40;;;;;;;12.10;9.90;;;;;;;2.24;100.00;98985.92;87206;273;23971;-69
2024/01/19 07:01:45;;;;;;;10.70;9.50;;;;;;;2.29;100.00;98987.52;87037;273;137446;-70
2024/01/19 07:03:46;;;;;;;12.00;9.40;;;;;;;2.35;100.00;98988.19;87697;273;22570;-70
2024/01/19 07:05:49;;;;;;;11.10;9.40;;;;;;;2.42;100.00;98991.67;87102;269;137089;-70
2024/01/19 07:07:51;;;;;;;11.50;9.40;;;;;;;2.48;100.00;98999.82;87580;270;22578;-68
2024/01/19 07:09:54;;;;;;;15.10;10.80;;;;;;;2.46;100.00;99004.20;87103;271;136079;-68
2024/01/19 07:11:56;;;;;;;13.70;10.80;;;;;;;2.44;100.00;99005.98;87192;274;22584;-69
2024/01/19 07:13:58;;;;;;;12.50;9.60;;;;;;;2.42;100.00;99009.20;87049;270;137399;-72
2024/01/19 07:16:00;;;;;;;11.80;9.60;;;;;;;2.40;100.00;99023.69;87713;269;22567;-70
2024/01/19 07:18:02;;;;;;;14.90;11.00;;;;;;;2.33;100.00;99024.39;87634;266;171277;-71
2024/01/19 07:20:05;;;;;;;16.20;11.30;;;;;;;2.29;100.00;99029.69;87751;274;138484;-71
2024/01/19 07:22:07;;;;;;;18.70;12.30;;;;;;;2.26;100.00;99038.42;87831;268;22596;-70
2024/01/19 07:24:11;;;;;;;18.20;15.10;;;;;;;2.23;100.00;99037.90;87732;265;138184;-71
2024/01/19 07:26:18;;;;;;;17.40;11.70;;;;;;;2.25;100.00;99038.92;90200;263;22230;-71
2024/01/19 07:28:20;;;;;;;18.70;14.50;;;;;;;2.21;100.00;99045.89;89946;278;138161;-70
2024/01/19 07:30:22;;;;;;;16.70;12.50;;;;;;;2.20;100.00;99050.86;88933;261;25090;-68
2024/01/19 07:32:25;;;;;;;21.20;14.50;;;;;;;2.21;100.00;99058.29;87576;273;139908;-69
2024/01/19 07:34:27;;;;;;;19.40;14.00;;;;;;;2.31;100.00;99057.76;87503;272;22639;-70
2024/01/19 07:36:30;;;;;;;18.40;13.60;;;;;;;2.35;100.00;99065.18;87474;273;138423;-69
2024/01/19 07:38:32;;;;;;;15.60;11.90;;;;;;;2.35;100.00;99074.19;87646;273;22575;-69
2024/01/19 07:40:34;;;;;;;16.20;12.90;;;;;;;2.38;100.00;99083.09;87308;272;136589;-71
2024/01/19 07:42:36;;;;;;;18.30;13.80;;;;;;;2.39;100.00;99086.01;87614;270;22568;-71
2024/01/19 07:44:37;;;;;;;17.50;13.40;;;;;;;2.39;100.00;99088.80;87587;274;138015;-70
2024/01/19 07:46:39;;;;;;;18.50;13.50;;;;;;;2.38;100.00;99089.88;87672;271;22570;-69
2024/01/19 07:48:41;;;;;;;14.20;11.00;;;;;;;2.38;100.00;99098.00;87459;269;139257;-70
2024/01/19 07:50:43;;;;;;;16.50;13.10;;;;;;;2.36;100.00;99101.01;87444;270;22563;-70
2024/01/19 07:52:45;;;;;;;12.50;9.60;;;;;;;2.31;100.00;99104.73;87490;269;137479;-71
2024/01/19 07:54:47;;;;;;;14.40;12.30;;;;;;;2.21;100.00;99110.21;87555;269;22539;-72
2024/01/19 07:56:49;;;;;;;13.50;11.30;;;;;;;2.09;100.00;99120.50;87628;277;138231;-70
2024/01/19 07:58:51;;;;;;;13.90;11.10;;;;;;;2.08;100.00;99122.96;87571;273;25203;-70
2024/01/19 08:00:53;;;;;;;18.10;12.90;;;;;;;2.02;100.00;99127.38;87317;267;137504;-70
2024/01/19 08:02:55;;;;;;;14.40;10.80;;;;;;;2.00;100.00;99129.29;87495;271;25257;-73
2024/01/19 08:04:57;;;;;;;16.30;12.10;;;;;;;2.04;100.00;99136.55;87420;273;136991;-74
2024/01/19 08:06:59;;;;;;;15.80;13.00;;;;;;;2.05;100.00;99136.77;87720;273;25131;-73
2024/01/19 08:09:02;;;;;;;16.40;12.70;;;;;;;2.00;100.00;99139.95;87613;269;138058;-72
2024/01/19 08:11:04;;;;;;;16.10;12.50;;;;;;;1.91;100.00;99141.60;87604;271;22571;-72
2024/01/19 08:13:06;;;;;;;18.20;13.80;;;;;;;1.74;100.00;99145.77;87536;269;137689;-73
2024/01/19 08:15:08;;;;;;;17.80;13.40;;;;;;;1.72;100.00;99148.98;87526;270;25181;-73
2024/01/19 08:17:10;;;;;;;17.30;12.70;;;;;;;1.65;100.00;99150.09;87391;277;137440;-72
2024/01/19 08:19:12;;;;;;;17.60;13.10;;;;;;;1.64;100.00;99153.69;87497;280;22576;-74
2024/01/19 08:21:14;;;;;;;16.40;13.30;;;;;;;1.61;100.00;99157.16;87431;274;138297;-73
2024/01/19 08:23:15;;;;;;;19.70;14.80;;;;;;;1.57;100.00;99153.83;87615;266;25227;-73
2024/01/19 08:25:17;;;;;;;14.10;11.60;;;;;;;1.72;100.00;99159.16;87525;270;136759;-72
2024/01/19 08:27:19;;;;;;;21.00;13.90;;;;;;;1.69;100.00;99161.67;87644;269;22571;-73
2024/01/19 08:29:21;;;;;;;19.90;14.10;;;;;;;1.54;100.00;99166.11;87468;273;136821;-73
2024/01/19 08:31:24;;;;;;;17.80;14.20;;;;;;;1.49;100.00;99168.88;87545;270;22562;-72
2024/01/19 08:33:26;;;;;;;17.20;13.50;;;;;;;1.49;100.00;99173.41;87468;265;136761;-73
2024/01/19 08:35:27;;;;;;;17.30;14.00;;;;;;;1.42;100.00;99173.80;87528;271;24191;-73
2024/01/19 08:37:29;;;;;;;19.40;14.60;;;;;;;1.43;100.00;99179.10;87449;273;136761;-73
2024/01/19 08:39:31;;;;;;;17.80;14.00;;;;;;;1.43;100.00;99183.16;87737;273;22558;-74
2024/01/19 08:41:43;;;;;;;18.90;14.90;;;;;;;1.44;100.00;99184.98;87516;277;136997;-74
2024/01/19 08:43:44;;;;;;;21.90;15.40;;;;;;;1.49;100.00;99184.98;87622;275;22558;-72
2024/01/19 08:45:46;;;;;;;18.70;14.80;;;;;;;1.55;100.00;99184.04;87480;267;137442;-73
2024/01/19 08:47:50;;;;;;;18.80;14.20;;;;;;;1.60;100.00;99186.12;87554;273;24055;-73
2024/01/19 08:49:52;;;;;;;18.30;13.90;;;;;;;1.66;100.00;99184.66;87433;270;138596;-75
2024/01/19 08:51:54;;;;;;;21.70;15.20;;;;;;;1.71;100.00;99189.02;87554;269;22568;-73
2024/01/19 08:53:56;;;;;;;19.80;14.10;;;;;;;1.74;100.00;99193.42;87348;270;136453;-72
2024/01/19 08:55:58;;;;;;;21.00;14.40;;;;;;;1.73;100.00;99197.52;87502;273;22552;-74
2024/01/19 08:58:00;;;;;;;18.90;15.10;;;;;;;1.73;100.00;99200.48;87540;265;136571;-73
2024/01/19 09:00:04;;;;;;;17.60;14.20;;;;;;;1.80;100.00;99202.83;87639;273;22589;-73
2024/01/19 09:02:06;;;;;;;21.60;16.40;;;;;;;1.89;100.00;99207.10;87666;268;25153;-73
2024/01/19 09:04:08;;;;;;;21.90;15.40;;;;;;;1.96;100.00;99212.67;87419;264;137227;-75
2024/01/19 09:06:11;;;;;;;19.60;16.00;;;;;;;2.05;100.00;99217.71;87601;270;22569;-73
2024/01/19 09:08:16;;;;;;;18.40;14.80;;;;;;;2.17;100.00;99229.08;87462;271;137583;-73
2024/01/19 09:10:18;;;;;;;20.50;16.10;;;;;;;2.22;100.00;99234.35;87507;269;24796;-73
2024/01/19 09:12:21;;;;;;;19.20;14.30;;;;;;;2.24;100.00;99241.87;87449;270;138170;-72
2024/01/19 09:14:24;;;;;;;20.30;16.40;;;;;;;2.22;100.00;99250.86;87592;269;22535;-73
2024/01/19 09:16:26;;;;;;;17.50;14.10;;;;;;;2.22;100.00;99257.35;87740;270;137927;-73
2024/01/19 09:18:27;;;;;;;18.30;13.70;;;;;;;2.19;100.00;99266.71;87460;261;24013;-73
2024/01/19 09:20:30;;;;;;;21.00;15.70;;;;;;;2.09;100.00;99263.53;87439;266;138068;-73
2024/01/19 09:22:32;;;;;;;18.90;14.50;;;;;;;1.97;100.00;99262.34;87523;269;22552;-73
2024/01/19 09:24:33;;;;;;;22.00;15.80;;;;;;;1.86;100.00;99268.02;87389;273;137887;-73
2024/01/19 09:26:35;;;;;;;19.00;12.90;;;;;;;1.84;100.00;99273.99;87314;262;22576;-79
2024/01/19 09:28:37;;;;;;;22.90;18.40;;;;;;;1.76;100.00;99269.90;87529;270;138314;-77